Time;durP1;ratioP1;P1;durP2;ratioP2;P2;SDS_P1;SDS_P2;PMS_P1;PMS_P2;Temp;Humidity;BMP_temperature;BMP_pressure;BME280_temperature;BME280_humidity;BME280_pressure;Samples;Min_cycle;Max_cycle;Signal;HPM_P1;HPM_P2
2022/11/28 00:01:32;;;;;;;32.60;19.42;;;;;;;1.57;82.92;101339.66;1675343;84;21014;-71
2022/11/28 00:03:59;;;;;;;31.00;18.55;;;;;;;1.54;82.92;101348.39;1683270;84;21532;-70
2022/11/28 00:06:26;;;;;;;29.27;18.50;;;;;;;1.55;82.92;101352.73;1685630;84;21422;-71
2022/11/28 00:08:53;;;;;;;31.85;19.73;;;;;;;1.55;82.91;101354.48;1675007;84;21014;-70
2022/11/28 00:11:21;;;;;;;31.35;19.52;;;;;;;1.53;82.91;101351.89;1682595;84;21023;-69
2022/11/28 00:13:48;;;;;;;31.80;19.20;;;;;;;1.52;82.93;101356.70;1691535;84;21061;-70
2022/11/28 00:16:22;;;;;;;30.90;19.45;;;;;;;1.52;82.95;101358.45;1681958;84;21964;-70
2022/11/28 00:18:53;;;;;;;32.28;18.95;;;;;;;1.50;82.97;101355.89;1678346;84;20996;-70
2022/11/28 00:21:19;;;;;;;33.00;19.55;;;;;;;1.48;82.99;101352.48;1672723;83;21049;-73
2022/11/28 00:23:47;;;;;;;31.55;19.32;;;;;;;1.48;83.02;101355.08;1684007;84;21079;-70
2022/11/28 00:26:33;;;;;;;31.77;19.60;;;;;;;1.49;83.03;101356.78;1686880;84;21065;-70
2022/11/28 00:28:59;;;;;;;34.10;20.02;;;;;;;1.49;83.01;101360.69;1649511;84;22005;-70
2022/11/28 00:31:30;;;;;;;33.42;19.15;;;;;;;1.50;83.01;101368.91;1676683;83;21150;-72
2022/11/28 00:33:57;;;;;;;34.03;19.70;;;;;;;1.50;83.02;101362.84;1683507;84;21030;-70
2022/11/28 00:36:25;;;;;;;33.70;19.12;;;;;;;1.50;83.02;101361.55;1665478;84;20982;-70
2022/11/28 00:38:53;;;;;;;33.65;19.85;;;;;;;1.51;83.00;101358.05;1674398;84;21082;-70
2022/11/28 00:41:23;;;;;;;32.80;19.30;;;;;;;1.51;83.02;101358.05;1666450;85;21854;-70
2022/11/28 00:43:50;;;;;;;34.88;19.73;;;;;;;1.51;83.03;101356.74;1680738;85;21059;-70
2022/11/28 00:46:18;;;;;;;35.35;19.75;;;;;;;1.51;83.04;101356.29;1675993;85;21101;-70
2022/11/28 00:48:46;;;;;;;33.78;19.67;;;;;;;1.52;83.06;101351.94;1661133;85;21358;-70
2022/11/28 00:51:16;;;;;;;36.77;20.75;;;;;;;1.51;83.04;101355.44;1671460;85;21020;-70
2022/11/28 00:53:44;;;;;;;33.58;19.77;;;;;;;1.50;83.08;101349.83;1677534;84;22595;-70
2022/11/28 00:56:12;;;;;;;34.75;21.02;;;;;;;1.51;83.10;101351.53;1663901;83;21036;-70
2022/11/28 00:58:39;;;;;;;35.15;20.10;;;;;;;1.51;83.11;101354.98;1665380;85;21491;-70
2022/11/28 01:01:29;;;;;;;37.93;21.37;;;;;;;1.52;83.11;101354.55;1673016;85;21013;-71
2022/11/28 01:03:58;;;;;;;34.23;19.15;;;;;;;1.50;83.04;101355.89;1665303;84;20965;-70
2022/11/28 01:06:29;;;;;;;37.88;21.37;;;;;;;1.50;83.05;101353.73;1665661;85;21970;-70
2022/11/28 01:08:58;;;;;;;37.08;20.45;;;;;;;1.48;83.05;101356.38;1671206;85;21392;-70
2022/11/28 01:11:27;;;;;;;38.60;21.27;;;;;;;1.47;83.07;101355.13;1680865;83;20965;-70
2022/11/28 01:13:56;;;;;;;37.88;19.73;;;;;;;1.47;83.14;101355.98;1673579;84;21117;-70
2022/11/28 01:16:23;;;;;;;38.15;19.62;;;;;;;1.50;83.19;101361.09;1679494;85;21078;-70
2022/11/28 01:18:49;;;;;;;37.78;20.23;;;;;;;1.51;83.13;101358.89;1666565;85;21801;-71
2022/11/28 01:21:16;;;;;;;35.75;19.80;;;;;;;1.49;83.12;101358.53;1657273;85;21032;-70
2022/11/28 01:23:43;;;;;;;41.48;20.55;;;;;;;1.47;83.13;101363.79;1675062;83;21072;-70
2022/11/28 01:26:17;;;;;;;39.53;20.72;;;;;;;1.47;83.14;101353.83;1668173;85;21007;-70
2022/11/28 01:28:45;;;;;;;37.98;19.95;;;;;;;1.44;83.15;101353.44;1665984;84;21465;-70
2022/11/28 01:31:15;;;;;;;35.50;21.02;;;;;;;1.46;83.23;101345.61;1675682;83;22640;-70
2022/11/28 01:33:42;;;;;;;43.25;21.57;;;;;;;1.46;83.20;101352.97;1672810;85;21005;-70
2022/11/28 01:36:09;;;;;;;36.28;19.57;;;;;;;1.47;83.22;101354.68;1683079;85;21021;-70
2022/11/28 01:38:37;;;;;;;31.82;18.73;;;;;;;1.46;83.20;101358.63;1652233;85;21641;-71
2022/11/28 01:41:04;;;;;;;39.08;21.25;;;;;;;1.46;83.20;101359.48;1653809;85;21438;-71
2022/11/28 01:43:30;;;;;;;41.48;21.20;;;;;;;1.48;83.22;101360.28;1687952;84;21960;-71
2022/11/28 01:45:58;;;;;;;38.45;20.37;;;;;;;1.51;83.28;101360.20;1678988;85;22610;-71
2022/11/28 01:48:33;;;;;;;38.85;19.57;;;;;;;1.51;83.26;101369.31;1670849;85;21029;-71
2022/11/28 01:51:03;;;;;;;41.53;19.90;;;;;;;1.52;83.22;101368.86;1678881;83;21055;-70
2022/11/28 01:53:31;;;;;;;38.58;20.02;;;;;;;1.50;83.13;101370.20;1689195;84;21103;-70
2022/11/28 01:56:02;;;;;;;41.68;19.57;;;;;;;1.47;83.11;101363.79;1680578;83;21824;-71
2022/11/28 01:58:29;;;;;;;47.25;20.90;;;;;;;1.47;83.16;101362.94;1675430;84;21008;-71
2022/11/28 02:00:56;;;;;;;40.43;19.75;;;;;;;1.46;83.14;101368.59;1682880;83;21564;-70
2022/11/28 02:03:35;;;;;;;43.20;20.37;;;;;;;1.46;83.16;101359.92;1681245;84;21000;-71
2022/11/28 02:06:03;;;;;;;38.15;19.40;;;;;;;1.46;83.23;101352.12;1667272;83;21027;-70
2022/11/28 02:08:33;;;;;;;90.97;54.48;;;;;;;1.47;83.25;101352.52;1671538;84;22165;-70
2022/11/28 02:11:27;;;;;;;85.72;57.40;;;;;;;1.49;83.28;101355.94;1677695;84;21059;-71
2022/11/28 02:14:11;;;;;;;57.50;31.10;;;;;;;1.48;83.29;101352.48;1650089;85;21016;-70
2022/11/28 02:17:03;;;;;;;42.38;23.22;;;;;;;1.48;83.23;101359.44;1650070;85;21013;-70
2022/11/28 02:19:54;;;;;;;40.85;21.20;;;;;;;1.46;83.17;101366.44;1652921;85;21449;-70
2022/11/28 02:22:45;;;;;;;38.92;19.27;;;;;;;1.47;83.14;101369.00;1663004;85;22566;-69
2022/11/28 02:25:25;;;;;;;39.27;21.05;;;;;;;1.47;83.11;101370.30;1655106;86;21028;-69
2022/11/28 02:28:20;;;;;;;42.60;24.55;;;;;;;1.46;83.09;101370.34;1646265;86;21010;-69
2022/11/28 02:31:19;;;;;;;38.70;22.50;;;;;;;1.46;83.11;101367.29;1630887;86;21061;-69
2022/11/28 02:33:49;;;;;;;54.90;33.88;;;;;;;1.48;83.19;101370.70;1630458;86;21098;-71
2022/11/28 02:36:25;;;;;;;43.33;26.37;;;;;;;1.50;83.27;101372.81;1640941;85;21852;-69
2022/11/28 02:39:15;;;;;;;42.43;25.52;;;;;;;1.52;83.27;101371.02;1650361;85;21011;-69
2022/11/28 02:41:49;;;;;;;46.75;29.12;;;;;;;1.52;83.27;101368.86;1657414;84;21007;-71
2022/11/28 02:44:25;;;;;;;43.58;27.37;;;;;;;1.52;83.28;101374.92;1638335;85;21042;-70
2022/11/28 02:46:58;;;;;;;38.80;22.65;;;;;;;1.53;83.26;101371.87;1626561;85;21029;-70
2022/11/28 02:49:33;;;;;;;34.58;20.57;;;;;;;1.52;83.25;101377.52;1665187;85;21889;-69
2022/11/28 02:52:06;;;;;;;33.15;19.42;;;;;;;1.50;83.19;101374.11;1629717;86;20952;-70
2022/11/28 02:54:33;;;;;;;37.73;19.00;;;;;;;1.50;83.27;101378.47;1646907;86;21011;-69
2022/11/28 02:56:59;;;;;;;37.00;20.00;;;;;;;1.49;83.26;101374.16;1644286;85;21037;-70
2022/11/28 02:59:44;;;;;;;35.00;20.17;;;;;;;1.49;83.25;101383.27;1654739;85;20960;-69
2022/11/28 03:02:22;;;;;;;30.70;19.35;;;;;;;1.48;83.24;101381.11;1644057;85;22214;-69
2022/11/28 03:05:15;;;;;;;33.92;19.35;;;;;;;1.52;83.20;101381.88;1636170;85;21015;-69
2022/11/28 03:07:52;;;;;;;;;;;;;;;1.53;83.22;101380.53;1640169;86;20988;-71
2022/11/28 03:10:44;;;;;;;28.55;18.30;;;;;;;1.54;83.17;101387.45;1644508;85;20542;-71
2022/11/28 03:13:24;;;;;;;32.05;19.55;;;;;;;1.55;83.20;101388.33;1645089;85;21032;-69
2022/11/28 03:16:02;;;;;;;32.15;18.65;;;;;;;1.55;83.26;101389.19;1630165;86;22084;-69
2022/11/28 03:18:43;;;;;;;44.38;31.90;;;;;;;1.56;83.27;101393.49;1637282;86;20972;-69
2022/11/28 03:21:15;;;;;;;45.17;28.05;;;;;;;1.57;83.21;101390.44;1645840;85;21504;-69
2022/11/28 03:23:55;;;;;;;33.73;21.70;;;;;;;1.56;83.19;101386.13;1645803;85;21551;-69
2022/11/28 03:26:27;;;;;;;35.88;23.70;;;;;;;1.57;83.21;101388.69;1650242;85;21080;-69
2022/11/28 03:29:13;;;;;;;52.93;35.17;;;;;;;1.56;83.20;101388.73;1633636;86;21801;-71
2022/11/28 03:31:44;;;;;;;36.55;20.77;;;;;;;1.54;83.21;101395.25;1628784;85;21522;-68
2022/11/28 03:34:14;;;;;;;29.20;18.50;;;;;;;1.55;83.18;101393.54;1627377;86;21087;-69
2022/11/28 03:36:45;;;;;;;32.78;19.57;;;;;;;1.55;83.15;101397.45;1632127;86;21105;-69
2022/11/28 03:39:16;;;;;;;32.60;18.40;;;;;;;1.54;83.11;101395.70;1640016;86;21151;-69
2022/11/28 03:41:56;;;;;;;28.40;17.15;;;;;;;1.54;83.06;101401.77;1636776;86;21977;-69
2022/11/28 03:44:38;;;;;;;36.90;24.82;;;;;;;1.55;83.07;101405.25;1638283;87;20953;-69
2022/11/28 03:47:04;;;;;;;32.58;22.32;;;;;;;1.56;83.08;101404.36;1630609;86;21064;-69
2022/11/28 03:49:36;;;;;;;34.98;23.42;;;;;;;1.59;83.10;101411.63;1637545;85;21046;-69
2022/11/28 03:52:06;;;;;;;39.53;28.05;;;;;;;1.60;83.08;101413.78;1645055;86;21543;-69
2022/11/28 03:54:37;;;;;;;34.33;25.50;;;;;;;1.60;83.10;101408.58;1646864;86;22537;-69
2022/11/28 03:57:15;;;;;;;28.67;19.27;;;;;;;1.59;83.13;101409.03;1647658;86;21022;-69
2022/11/28 03:59:48;;;;;;;24.32;16.57;;;;;;;1.60;83.19;101404.22;1638711;85;21076;-70
2022/11/28 04:02:32;;;;;;;24.45;16.37;;;;;;;1.62;83.27;101395.06;1624519;87;21121;-70
2022/11/28 04:05:23;;;;;;;23.40;14.70;;;;;;;1.60;83.26;101388.59;1635319;86;20981;-69
2022/11/28 04:08:04;;;;;;;21.27;14.65;;;;;;;1.59;83.28;101392.55;1639087;85;21867;-72
2022/11/28 04:11:02;;;;;;;19.62;13.10;;;;;;;1.57;83.30;101387.39;1634352;85;21050;-70
2022/11/28 04:13:43;;;;;;;15.88;11.55;;;;;;;1.60;83.32;101388.59;1629540;87;21030;-69
2022/11/28 04:16:21;;;;;;;15.48;10.78;;;;;;;1.59;83.31;101395.16;1648756;86;21082;-69
2022/11/28 04:19:04;;;;;;;13.72;10.40;;;;;;;1.60;83.33;101390.34;1642589;86;20970;-70
2022/11/28 04:21:45;;;;;;;11.75;9.10;;;;;;;1.59;83.35;101389.95;1623691;86;21755;-70
2022/11/28 04:24:18;;;;;;;13.85;8.73;;;;;;;1.57;83.37;101384.78;1626644;86;21017;-70
2022/11/28 04:26:49;;;;;;;9.53;7.97;;;;;;;1.56;83.37;101383.53;1630687;86;20986;-70
2022/11/28 04:29:17;;;;;;;9.20;6.92;;;;;;;1.55;83.36;101387.88;1627689;85;21065;-70
2022/11/28 04:31:44;;;;;;;7.70;6.17;;;;;;;1.54;83.36;101392.66;1658631;83;21096;-70
2022/11/28 04:34:14;;;;;;;8.40;6.80;;;;;;;1.54;83.34;101398.31;1658189;85;21864;-70
2022/11/28 04:36:43;;;;;;;7.42;6.05;;;;;;;1.55;83.35;101407.41;1648638;85;21046;-70
2022/11/28 04:39:14;;;;;;;7.30;6.10;;;;;;;1.55;83.32;101402.20;1645783;86;21036;-70
2022/11/28 04:41:45;;;;;;;7.12;5.53;;;;;;;1.56;83.26;101397.40;1669280;84;21104;-70
2022/11/28 04:44:16;;;;;;;8.20;5.45;;;;;;;1.53;83.26;101397.45;1641318;86;21020;-70
2022/11/28 04:46:47;;;;;;;10.38;8.18;;;;;;;1.55;83.31;101406.11;1643214;86;21838;-70
2022/11/28 04:49:13;;;;;;;8.65;5.97;;;;;;;1.56;83.30;101405.21;1640132;86;21040;-70
2022/11/28 04:51:58;;;;;;;9.10;5.90;;;;;;;1.57;83.20;101404.77;1659368;84;21051;-70
2022/11/28 04:54:43;;;;;;;6.58;5.40;;;;;;;1.58;83.20;101402.56;1658054;86;21032;-70
2022/11/28 04:57:18;;;;;;;8.23;5.50;;;;;;;1.59;83.19;101403.82;1669879;85;21532;-70
2022/11/28 04:59:44;;;;;;;7.37;5.58;;;;;;;1.59;83.14;101411.63;1674726;84;21782;-71
2022/11/28 05:02:11;;;;;;;7.72;5.78;;;;;;;1.58;83.10;101415.58;1664196;84;21457;-70
2022/11/28 05:04:38;;;;;;;6.28;5.28;;;;;;;1.56;83.13;101416.92;1676011;85;21031;-70
2022/11/28 05:07:06;;;;;;;7.97;5.70;;;;;;;1.55;83.13;101412.61;1668987;85;21410;-70
2022/11/28 05:09:33;;;;;;;6.58;4.80;;;;;;;1.53;83.13;101416.98;1666715;84;21036;-70
2022/11/28 05:11:59;;;;;;;6.83;5.12;;;;;;;1.54;83.13;101421.74;1671299;84;22418;-71
2022/11/28 05:14:25;;;;;;;6.53;5.30;;;;;;;1.51;83.08;101412.72;1672517;85;21387;-70
2022/11/28 05:16:53;;;;;;;7.47;5.42;;;;;;;1.51;83.13;101413.57;1662151;84;21043;-72
2022/11/28 05:19:23;;;;;;;7.08;5.67;;;;;;;1.51;83.11;101415.32;1652626;85;21093;-70
2022/11/28 05:21:52;;;;;;;6.75;5.25;;;;;;;1.48;83.06;101422.77;1670993;84;21110;-71
2022/11/28 05:24:24;;;;;;;6.75;5.60;;;;;;;1.48;83.06;101419.31;1663747;84;22015;-70
2022/11/28 05:26:56;;;;;;;8.15;5.20;;;;;;;1.50;83.07;101427.94;1670024;84;21019;-70
2022/11/28 05:29:27;;;;;;;6.47;4.87;;;;;;;1.50;83.04;101430.09;1668563;84;21035;-70
2022/11/28 05:31:59;;;;;;;8.03;5.65;;;;;;;1.50;83.01;101429.23;1680889;83;21348;-71
2022/11/28 05:34:28;;;;;;;6.72;5.17;;;;;;;1.48;83.03;101442.30;1671273;85;21140;-69
2022/11/28 05:36:59;;;;;;;8.00;5.78;;;;;;;1.50;83.01;101434.44;1676646;84;21951;-70
2022/11/28 05:39:29;;;;;;;8.98;5.97;;;;;;;1.50;82.98;101431.39;1682227;83;21096;-70
2022/11/28 05:41:57;;;;;;;6.47;5.17;;;;;;;1.52;83.04;101441.31;1659356;85;21089;-70
2022/11/28 05:44:27;;;;;;;7.97;5.17;;;;;;;1.53;82.95;101435.66;1633501;86;21053;-71
2022/11/28 05:46:57;;;;;;;7.80;5.80;;;;;;;1.51;82.94;101443.52;1630254;86;21052;-71
2022/11/28 05:49:27;;;;;;;8.05;5.72;;;;;;;1.48;82.93;101451.41;1679644;83;22430;-70
2022/11/28 05:52:00;;;;;;;7.67;4.92;;;;;;;1.49;82.94;101453.56;1659731;85;21068;-70
2022/11/28 05:54:33;;;;;;;7.15;5.22;;;;;;;1.50;82.98;101447.02;1678934;85;20983;-72
2022/11/28 05:57:05;;;;;;;8.08;5.87;;;;;;;1.53;82.93;101451.28;1673415;83;21086;-71
2022/11/28 05:59:38;;;;;;;8.25;6.15;;;;;;;1.53;82.92;101459.94;1677760;84;21023;-70
2022/11/28 06:02:08;;;;;;;8.30;6.03;;;;;;;1.55;82.89;101460.79;1672075;84;22550;-71
2022/11/28 06:04:40;;;;;;;7.87;6.17;;;;;;;1.57;82.91;101467.25;1666181;85;21521;-72
2022/11/28 06:07:09;;;;;;;7.87;5.75;;;;;;;1.60;82.87;101462.81;1679248;84;21145;-71
2022/11/28 06:09:42;;;;;;;7.45;5.83;;;;;;;1.62;82.84;101460.16;1657532;85;21389;-71
2022/11/28 06:12:15;;;;;;;7.42;5.75;;;;;;;1.64;82.90;101472.28;1659695;85;21101;-70
2022/11/28 06:14:44;;;;;;;8.93;5.27;;;;;;;1.66;82.87;101477.00;1679768;83;21922;-71
2022/11/28 06:17:13;;;;;;;7.10;5.60;;;;;;;1.66;82.88;101467.02;1679279;84;21087;-72
2022/11/28 06:19:45;;;;;;;7.37;5.10;;;;;;;1.65;82.89;101468.77;1681302;84;21014;-71
2022/11/28 06:22:17;;;;;;;6.90;5.28;;;;;;;1.67;82.94;101477.84;1655146;84;21630;-73
2022/11/28 06:24:50;;;;;;;7.08;5.17;;;;;;;1.69;82.92;101478.20;1680145;83;21011;-70
2022/11/28 06:27:21;;;;;;;7.87;5.70;;;;;;;1.70;82.93;101475.16;1659455;85;21945;-72
2022/11/28 06:29:49;;;;;;;6.67;5.42;;;;;;;1.73;82.90;101471.16;1676614;84;21177;-72
2022/11/28 06:32:20;;;;;;;6.95;5.55;;;;;;;1.75;82.91;101467.24;1679714;84;21486;-70
2022/11/28 06:34:51;;;;;;;7.87;5.72;;;;;;;1.76;82.94;101465.05;1679409;83;21010;-70
2022/11/28 06:37:22;;;;;;;7.65;5.70;;;;;;;1.77;82.88;101469.36;1682166;83;21188;-71
2022/11/28 06:39:50;;;;;;;7.03;5.65;;;;;;;1.76;82.91;101464.59;1660592;85;21835;-70
2022/11/28 06:42:23;;;;;;;7.33;5.85;;;;;;;1.78;82.95;101460.64;1662970;84;21075;-71
2022/11/28 06:44:55;;;;;;;7.20;5.70;;;;;;;1.79;82.96;101466.26;1674597;84;21058;-72
2022/11/28 06:47:28;;;;;;;7.20;6.20;;;;;;;1.81;83.00;101468.37;1667145;85;22017;-71
2022/11/28 06:49:59;;;;;;;7.58;6.00;;;;;;;1.83;83.02;101469.17;1663038;85;21058;-71
2022/11/28 06:52:28;;;;;;;8.45;6.65;;;;;;;1.85;83.03;101472.62;1675623;83;22208;-71
2022/11/28 06:55:00;;;;;;;8.63;6.45;;;;;;;1.88;83.04;101481.20;1673719;83;21041;-74
2022/11/28 06:57:32;;;;;;;8.53;6.55;;;;;;;1.89;83.05;101487.27;1665942;85;21020;-71
2022/11/28 07:00:00;;;;;;;8.68;6.65;;;;;;;1.93;83.03;101494.09;1665833;85;21135;-73
2022/11/28 07:02:30;;;;;;;7.40;5.97;;;;;;;1.93;82.93;101479.34;1632927;86;21107;-76
2022/11/28 07:04:57;;;;;;;7.78;5.90;;;;;;;1.91;82.88;101474.59;1601736;85;21831;-74
2022/11/28 07:07:23;;;;;;;7.87;5.80;;;;;;;1.89;82.88;101475.09;1655012;84;21032;-73
2022/11/28 07:09:51;;;;;;;7.72;6.35;;;;;;;1.90;82.93;101469.44;1648065;84;21127;-71
2022/11/28 07:12:18;;;;;;;7.85;6.03;;;;;;;1.93;82.96;101473.25;1663986;83;21048;-71
2022/11/28 07:14:44;;;;;;;8.73;6.87;;;;;;;1.95;83.03;101463.67;1665280;85;21114;-71
2022/11/28 07:17:13;;;;;;;8.93;6.85;;;;;;;1.98;83.02;101465.73;1656492;84;22573;-71
2022/11/28 07:19:40;;;;;;;9.60;7.00;;;;;;;2.00;83.01;101470.45;1666887;85;21064;-70
2022/11/28 07:22:06;;;;;;;9.80;7.22;;;;;;;2.00;82.96;101470.91;1664029;84;21062;-69
2022/11/28 07:24:33;;;;;;;12.55;8.45;;;;;;;1.99;82.96;101467.45;1651980;84;21067;-72
2022/11/28 07:27:00;;;;;;;12.65;8.35;;;;;;;1.97;82.98;101471.84;1663815;85;21114;-69
2022/11/28 07:29:34;;;;;;;12.20;9.23;;;;;;;2.00;83.02;101472.20;1656284;86;21818;-71
2022/11/28 07:31:54;;;;;;;12.15;8.40;;;;;;;1.93;83.08;101471.53;1667200;85;21573;-71
2022/11/28 07:34:21;;;;;;;11.70;8.20;;;;;;;1.93;83.13;101474.14;1664464;85;21062;-74
2022/11/28 07:36:48;;;;;;;11.90;7.78;;;;;;;1.89;83.13;101476.40;1666810;85;21063;-72
2022/11/28 07:39:16;;;;;;;11.60;8.20;;;;;;;1.88;83.17;101482.50;1663563;85;21081;-73
2022/11/28 07:41:45;;;;;;;12.40;8.20;;;;;;;1.92;83.24;101486.73;1670293;85;22132;-70
2022/11/28 07:44:16;;;;;;;10.95;7.87;;;;;;;1.96;83.28;101486.22;1665833;84;21598;-71
2022/11/28 07:46:40;;;;;;;11.12;7.78;;;;;;;1.98;83.26;101487.88;1670452;85;21100;-70
2022/11/28 07:49:06;;;;;;;11.38;7.75;;;;;;;1.98;83.24;101487.03;1664534;83;20972;-71
2022/11/28 07:51:33;;;;;;;10.40;7.62;;;;;;;2.01;83.30;101484.33;1673847;85;21073;-65
2022/11/28 07:54:01;;;;;;;11.15;8.15;;;;;;;2.04;83.33;101492.09;1662627;83;22004;-68
2022/11/28 07:56:31;;;;;;;10.58;7.78;;;;;;;2.08;83.30;101487.64;1669801;84;21604;-67
2022/11/28 07:58:59;;;;;;;12.35;8.48;;;;;;;2.09;83.23;101486.30;1674046;85;21042;-66
2022/11/28 08:01:28;;;;;;;12.95;8.55;;;;;;;2.07;83.22;101480.72;1681446;83;21017;-66
2022/11/28 08:03:55;;;;;;;11.08;8.23;;;;;;;2.10;83.25;101487.15;1651877;84;21039;-68
2022/11/28 08:06:26;;;;;;;12.35;8.65;;;;;;;2.12;83.26;101484.05;1652230;86;21854;-68
2022/11/28 08:08:54;;;;;;;11.60;7.80;;;;;;;2.12;83.27;101490.11;1650983;86;21087;-67
2022/11/28 08:11:22;;;;;;;17.45;12.47;;;;;;;2.12;83.26;101490.56;1651605;86;21381;-67
2022/11/28 08:13:50;;;;;;;14.28;9.70;;;;;;;2.10;83.29;101491.91;1633552;86;21130;-67
2022/11/28 08:16:20;;;;;;;14.47;9.30;;;;;;;2.11;83.35;101487.10;1659136;85;20963;-67
2022/11/28 08:18:49;;;;;;;15.45;8.78;;;;;;;2.12;83.38;101490.11;1644984;85;21926;-68
2022/11/28 08:21:23;;;;;;;152.53;15.15;;;;;;;2.13;83.36;101489.70;1648841;87;21031;-67
2022/11/28 08:23:51;;;;;;;27.60;9.90;;;;;;;2.13;83.39;101488.39;1653956;85;21114;-66
2022/11/28 08:26:21;;;;;;;13.88;8.45;;;;;;;2.17;83.48;101492.16;1674852;85;21186;-66
2022/11/28 08:28:50;;;;;;;14.83;8.70;;;;;;;2.18;83.46;101493.88;1674834;85;21118;-66
2022/11/28 08:31:27;;;;;;;14.00;9.10;;;;;;;2.20;83.50;101501.19;1667520;84;21464;-66
2022/11/28 08:33:55;;;;;;;15.13;9.38;;;;;;;2.22;83.53;101494.21;1687068;84;21441;-69
2022/11/28 08:36:30;;;;;;;13.75;8.98;;;;;;;2.25;83.54;101505.00;1654849;84;21058;-68
2022/11/28 08:39:03;;;;;;;14.28;9.18;;;;;;;2.28;83.54;101503.16;1676491;83;21073;-69
2022/11/28 08:41:31;;;;;;;13.48;9.03;;;;;;;2.32;83.46;101502.64;1686763;82;21053;-68
2022/11/28 08:43:59;;;;;;;12.93;8.73;;;;;;;2.34;83.42;101489.11;1695560;83;21942;-68
2022/11/28 08:46:26;;;;;;;14.25;9.13;;;;;;;2.33;83.34;101482.64;1695278;83;21580;-69
2022/11/28 08:48:52;;;;;;;15.68;10.15;;;;;;;2.29;83.34;101477.94;1694499;83;21054;-69
2022/11/28 08:51:25;;;;;;;13.75;9.65;;;;;;;2.34;83.43;101476.52;1675560;83;21018;-70
2022/11/28 08:53:52;;;;;;;13.37;9.63;;;;;;;2.36;83.43;101476.88;1695649;84;21057;-70
2022/11/28 08:56:19;;;;;;;20.12;9.00;;;;;;;2.40;83.51;101480.23;1695252;84;22016;-69
2022/11/28 08:58:45;;;;;;;21.68;9.90;;;;;;;2.43;83.48;101478.88;1695184;84;21114;-70
2022/11/28 09:01:20;;;;;;;12.85;8.93;;;;;;;2.46;83.53;101468.34;1681616;84;21093;-71
2022/11/28 09:03:47;;;;;;;25.80;9.28;;;;;;;2.49;83.53;101466.95;1674490;84;21092;-70
2022/11/28 09:06:14;;;;;;;12.20;8.65;;;;;;;2.51;83.50;101475.58;1683275;84;21007;-68
2022/11/28 09:08:41;;;;;;;12.43;8.55;;;;;;;2.49;83.38;101472.16;1696538;83;21849;-69
2022/11/28 09:11:09;;;;;;;12.40;8.75;;;;;;;2.47;83.35;101472.20;1695911;84;20960;-71
2022/11/28 09:13:37;;;;;;;16.42;9.03;;;;;;;2.49;83.41;101469.11;1681421;84;20970;-72
2022/11/28 09:16:04;;;;;;;14.07;9.30;;;;;;;2.54;83.42;101466.38;1687331;83;21066;-74
2022/11/28 09:18:31;;;;;;;15.60;9.33;;;;;;;2.55;83.41;101468.09;1696907;84;21019;-72
2022/11/28 09:21:01;;;;;;;14.05;9.13;;;;;;;2.58;83.42;101466.23;1696617;84;21451;-73
2022/11/28 09:23:28;;;;;;;15.72;8.85;;;;;;;2.61;83.48;101461.85;1691803;84;20986;-70
2022/11/28 09:25:55;;;;;;;14.60;9.10;;;;;;;2.63;83.47;101454.37;1690241;84;21069;-74
2022/11/28 09:28:23;;;;;;;18.73;9.63;;;;;;;2.66;83.38;101452.12;1669064;84;21003;-72
2022/11/28 09:30:49;;;;;;;15.13;9.33;;;;;;;2.68;83.33;101445.09;1689065;84;21263;-73
2022/11/28 09:33:19;;;;;;;10.60;8.28;;;;;;;2.66;83.23;101449.06;1654416;84;21959;-72
2022/11/28 09:35:51;;;;;;;12.20;9.13;;;;;;;2.67;83.25;101449.91;1641901;85;21120;-72
2022/11/28 09:38:19;;;;;;;11.78;8.80;;;;;;;2.65;83.17;101465.62;1636586;85;21032;-73
2022/11/28 09:40:47;;;;;;;12.23;8.65;;;;;;;2.66;83.14;101466.47;1624715;87;21556;-72
2022/11/28 09:43:22;;;;;;;17.40;7.55;;;;;;;2.67;83.01;101470.33;1634016;86;21032;-71
2022/11/28 09:45:51;;;;;;;12.35;7.05;;;;;;;2.66;82.94;101462.56;1641924;85;21845;-75
2022/11/28 09:48:36;;;;;;;9.70;7.42;;;;;;;2.64;82.95;101457.39;1642394;86;21495;-72
2022/11/28 09:51:27;;;;;;;10.38;7.67;;;;;;;2.65;82.90;101455.19;1635523;85;21085;-73
2022/11/28 09:54:25;;;;;;;9.73;7.33;;;;;;;2.66;82.89;101458.64;1639345;85;21628;-74
2022/11/28 09:56:57;;;;;;;42.88;10.43;;;;;;;2.69;82.85;101467.22;1624443;87;38534;-74
2022/11/28 09:59:26;;;;;;;26.68;11.50;;;;;;;2.74;82.84;101465.34;1647186;87;22638;-76
2022/11/28 10:02:23;;;;;;;10.23;7.67;;;;;;;2.79;82.85;101466.50;1606759;86;21092;-71
2022/11/28 10:05:08;;;;;;;9.95;8.18;;;;;;;2.80;82.78;101466.48;1641197;86;20981;-73
2022/11/28 10:07:57;;;;;;;10.95;8.30;;;;;;;2.80;82.75;101462.57;1644047;85;21029;-73
2022/11/28 10:10:53;;;;;;;14.25;8.58;;;;;;;2.83;82.74;101458.55;1626115;85;21052;-74
2022/11/28 10:14:01;;;;;;;12.18;7.67;;;;;;;2.86;82.67;101463.67;1641433;85;21602;-76
2022/11/28 10:17:05;;;;;;;12.03;8.05;;;;;;;2.86;82.54;101458.91;1637959;85;20956;-74
2022/11/28 10:19:45;;;;;;;18.52;8.88;;;;;;;2.84;82.41;101464.17;1633184;85;21048;-73
2022/11/28 10:22:16;;;;;;;12.63;8.70;;;;;;;2.84;82.29;101458.95;1615958;87;21122;-75
2022/11/28 10:24:47;;;;;;;38.20;11.88;;;;;;;2.84;82.20;101452.88;1634440;87;21095;-70
2022/11/28 10:27:14;;;;;;;24.90;9.60;;;;;;;2.88;82.22;101454.48;1626417;87;22555;-70
2022/11/28 10:30:00;;;;;;;11.05;8.03;;;;;;;2.91;82.15;101445.73;1618314;87;21101;-72
2022/11/28 10:32:37;;;;;;;8.68;6.80;;;;;;;2.90;82.07;101451.86;1610055;87;21073;-70
2022/11/28 10:35:33;;;;;;;10.55;7.10;;;;;;;2.91;81.96;101458.33;1595827;87;21033;-71
2022/11/28 10:38:00;;;;;;;8.10;6.42;;;;;;;2.88;81.81;101450.57;1632274;85;21490;-72
2022/11/28 10:40:53;;;;;;;13.75;7.10;;;;;;;2.86;81.73;101451.92;1639215;86;22550;-70
2022/11/28 10:43:37;;;;;;;10.55;7.20;;;;;;;2.85;81.71;101447.61;1612142;87;21006;-72
2022/11/28 10:46:24;;;;;;;13.35;7.00;;;;;;;2.91;81.73;101444.43;1661118;85;20980;-70
2022/11/28 10:49:18;;;;;;;10.60;7.20;;;;;;;2.92;81.67;101450.90;1637207;87;21093;-71
2022/11/28 10:52:01;;;;;;;10.30;7.45;;;;;;;2.92;81.61;101443.52;1662804;85;21036;-72
2022/11/28 10:54:56;;;;;;;;;;;;;;;2.93;81.58;101442.17;1612510;85;21745;-73
2022/11/28 10:57:31;;;;;;;12.33;7.05;;;;;;;2.96;81.55;101438.59;1647743;85;28979;-71
2022/11/28 11:00:18;;;;;;;11.55;6.95;;;;;;;2.92;81.46;101435.70;1650273;85;20977;-71
2022/11/28 11:02:55;;;;;;;165.68;17.60;;;;;;;2.91;81.37;101440.52;1630260;85;21502;-72
2022/11/28 11:05:29;;;;;;;11.25;7.70;;;;;;;2.91;81.39;101437.45;1632852;87;21047;-71
2022/11/28 11:08:13;;;;;;;9.95;7.30;;;;;;;2.95;81.40;101437.75;1627397;87;22005;-72
2022/11/28 11:10:48;;;;;;;17.95;7.58;;;;;;;3.01;81.47;101434.11;1612614;88;20994;-75
2022/11/28 11:13:24;;;;;;;13.75;7.25;;;;;;;3.05;81.44;101430.48;1601227;87;21010;-71
2022/11/28 11:16:03;;;;;;;10.48;7.03;;;;;;;3.03;81.31;101437.52;1640162;86;21067;-72
2022/11/28 11:18:46;;;;;;;8.68;6.97;;;;;;;3.04;81.30;101436.16;1635839;87;21406;-73
2022/11/28 11:21:21;;;;;;;8.65;6.70;;;;;;;3.05;81.23;101425.27;1606292;88;21936;-71
2022/11/28 11:24:10;;;;;;;8.45;6.65;;;;;;;3.06;81.21;101426.97;1617154;87;21033;-70
2022/11/28 11:26:40;;;;;;;9.08;6.60;;;;;;;3.07;81.14;101424.76;1638017;87;21021;-70
2022/11/28 11:29:22;;;;;;;8.13;6.37;;;;;;;3.04;81.10;101425.72;1639093;87;20996;-71
2022/11/28 11:31:52;;;;;;;8.98;6.67;;;;;;;3.06;81.05;101431.73;1639934;85;21439;-71
2022/11/28 11:34:20;;;;;;;8.38;6.90;;;;;;;3.09;81.09;101426.89;1668813;85;21843;-69
2022/11/28 11:36:47;;;;;;;9.50;7.45;;;;;;;3.11;81.04;101429.00;1656939;84;20968;-72
2022/11/28 11:39:21;;;;;;;9.75;6.53;;;;;;;3.10;81.02;101429.45;1667862;85;21099;-72
2022/11/28 11:41:51;;;;;;;9.00;6.87;;;;;;;3.12;81.06;101429.40;1650441;85;21016;-72
2022/11/28 11:44:33;;;;;;;9.65;6.75;;;;;;;3.11;80.92;101436.83;1635947;85;21048;-73
2022/11/28 11:47:04;;;;;;;11.33;6.62;;;;;;;3.11;80.93;101435.07;1669330;84;21834;-71
2022/11/28 11:49:36;;;;;;;11.78;7.33;;;;;;;3.10;80.84;101425.99;1634328;86;21091;-74
2022/11/28 11:52:14;;;;;;;11.65;6.97;;;;;;;3.09;80.86;101430.81;1648188;85;21024;-71